Terminal Aerodrome Forecast
Issued by NWS Quad Cities IA IL

Home | Current Version | Previous Version | Graphics & Text | Print | Product List | Glossary On
Versions: 1 2 3 4 5 6 7 8 9 10 11 12 13 14 15 16 17 18 19 20 21 22 23 24 25 26 27
000
FTUS43 KDVN 292100 AAA
TAFDBQ
TAF AMD
KDBQ 292101Z 2921/3018 32019G27KT P6SM BKN015 OVC023
     FM300100 32014KT P6SM SCT030
     FM301200 36006KT P6SM FEW030=

USA.gov is the U.S. government's official web portal to all federal, state and local government web resources and services.